Time;durP1;ratioP1;P1;durP2;ratioP2;P2;SDS_P1;SDS_P2;PMS_P1;PMS_P2;Temp;Humidity;BMP_temperature;BMP_pressure;BME280_temperature;BME280_humidity;BME280_pressure;Samples;Min_cycle;Max_cycle;Signal;HPM_P1;HPM_P2
2021/04/03 00:02:08;;;;;;;1.20;1.10;;;;;;;;;;5053024;28;20578;-72
2021/04/03 00:04:34;;;;;;;1.00;0.73;;;;;;;;;;5053277;28;20824;-73
2021/04/03 00:07:00;;;;;;;1.63;1.53;;;;;;;;;;5053037;28;20739;-71
2021/04/03 00:09:26;;;;;;;4.37;4.07;;;;;;;;;;5052614;28;20453;-72
2021/04/03 00:11:52;;;;;;;0.70;0.50;;;;;;;;;;5052675;28;20399;-71
2021/04/03 00:14:18;;;;;;;0.77;0.67;;;;;;;;;;5052984;28;20439;-71
2021/04/03 00:16:44;;;;;;;0.70;0.50;;;;;;;;;;5052955;28;20890;-71
2021/04/03 00:19:09;;;;;;;18.73;17.10;;;;;;;;;;5052881;28;21036;-71
2021/04/03 00:21:35;;;;;;;0.80;0.77;;;;;;;;;;5034656;28;20406;-71
2021/04/03 00:24:01;;;;;;;6.60;0.87;;;;;;;;;;5034071;28;20407;-71
2021/04/03 00:26:27;;;;;;;0.80;0.70;;;;;;;;;;5032867;28;20891;-73
2021/04/03 00:28:53;;;;;;;3.87;3.67;;;;;;;;;;5032762;28;20446;-72
2021/04/03 00:31:20;;;;;;;0.70;0.50;;;;;;;;;;5032538;28;20414;-72
2021/04/03 00:33:46;;;;;;;0.70;0.60;;;;;;;;;;5032743;28;20419;-72
2021/04/03 00:36:13;;;;;;;0.83;0.73;;;;;;;;;;5032814;28;20400;-72
2021/04/03 00:38:39;;;;;;;1.23;1.13;;;;;;;;;;5032820;28;20512;-72
2021/04/03 00:41:05;;;;;;;27.83;26.03;;;;;;;;;;5035153;28;20563;-71
2021/04/03 00:43:31;;;;;;;47.30;42.63;;;;;;;;;;5052708;28;20399;-71
2021/04/03 00:45:57;;;;;;;126.30;58.23;;;;;;;;;;5052638;28;20432;-72
2021/04/03 00:48:23;;;;;;;0.80;0.60;;;;;;;;;;5052331;28;20510;-73
2021/04/03 00:50:50;;;;;;;0.93;0.83;;;;;;;;;;5052269;28;20410;-72
2021/04/03 00:53:16;;;;;;;0.70;0.43;;;;;;;;;;5052242;28;20409;-72
2021/04/03 00:55:42;;;;;;;137.17;34.23;;;;;;;;;;5052115;28;20774;-72
2021/04/03 00:58:09;;;;;;;4.93;4.53;;;;;;;;;;5052256;28;20431;-72
2021/04/03 01:00:35;;;;;;;389.45;83.78;;;;;;;;;;5051843;28;20453;-71
2021/04/03 01:03:01;;;;;;;121.33;24.97;;;;;;;;;;5051979;28;20174;-72
2021/04/03 01:05:27;;;;;;;2.73;2.63;;;;;;;;;;5052078;28;20889;-71
2021/04/03 01:07:54;;;;;;;0.70;0.50;;;;;;;;;;5051943;28;20410;-71
2021/04/03 01:10:21;;;;;;;0.80;0.50;;;;;;;;;;5051779;28;21080;-71
2021/04/03 01:12:53;;;;;;;1.07;1.07;;;;;;;;;;5051681;28;20415;-72
2021/04/03 01:15:38;;;;;;;2.30;1.70;;;;;;;;;;5052247;28;20908;-73
2021/04/03 01:18:03;;;;;;;0.70;0.50;;;;;;;;;;5051733;28;20502;-72
2021/04/03 01:20:32;;;;;;;1.10;1.00;;;;;;;;;;5050869;28;20485;-72
2021/04/03 01:23:19;;;;;;;0.70;0.50;;;;;;;;;;5041182;28;20411;-71
2021/04/03 01:25:45;;;;;;;0.70;0.40;;;;;;;;;;5031966;28;20401;-73
2021/04/03 01:28:35;;;;;;;28.17;23.47;;;;;;;;;;5031405;28;20927;-71
2021/04/03 01:31:02;;;;;;;135.07;71.87;;;;;;;;;;5031545;28;20404;-72
2021/04/03 01:33:30;;;;;;;0.70;0.50;;;;;;;;;;5031431;28;20446;-74
2021/04/03 01:35:57;;;;;;;97.47;59.80;;;;;;;;;;5013920;28;20497;-72
2021/04/03 01:38:29;;;;;;;289.80;89.37;;;;;;;;;;5031491;28;20443;-73
2021/04/03 01:40:56;;;;;;;351.87;90.77;;;;;;;;;;5015126;28;20461;-72
2021/04/03 01:43:26;;;;;;;386.00;89.23;;;;;;;;;;5033413;28;20501;-71
2021/04/03 01:45:54;;;;;;;432.05;91.38;;;;;;;;;;5051449;28;20898;-72
2021/04/03 01:48:21;;;;;;;432.25;104.13;;;;;;;;;;5051309;28;20246;-74
2021/04/03 01:50:48;;;;;;;442.80;94.70;;;;;;;;;;5033509;28;20248;-73
2021/04/03 01:53:14;;;;;;;161.47;41.07;;;;;;;;;;5033425;28;20170;-72
2021/04/03 01:55:40;;;;;;;429.98;121.50;;;;;;;;;;5051456;28;20405;-72
2021/04/03 01:58:06;;;;;;;427.65;99.65;;;;;;;;;;5033527;28;20289;-71
2021/04/03 02:00:34;;;;;;;444.00;103.53;;;;;;;;;;5050938;28;20282;-70
2021/04/03 02:03:00;;;;;;;429.25;99.75;;;;;;;;;;5033191;28;20414;-71
2021/04/03 02:05:27;;;;;;;412.95;91.05;;;;;;;;;;5033204;28;20170;-71
2021/04/03 02:07:53;;;;;;;415.15;90.55;;;;;;;;;;5050947;28;20672;-70
2021/04/03 02:10:26;;;;;;;419.58;86.90;;;;;;;;;;5050866;28;20173;-73
2021/04/03 02:12:52;;;;;;;428.75;86.82;;;;;;;;;;5050542;28;20196;-71
2021/04/03 02:15:18;;;;;;;418.08;83.82;;;;;;;;;;5051000;28;20228;-71
2021/04/03 02:17:46;;;;;;;399.52;82.78;;;;;;;;;;5050432;28;20175;-71
2021/04/03 02:20:13;;;;;;;391.58;81.15;;;;;;;;;;5032128;28;20574;-71
2021/04/03 02:22:40;;;;;;;396.05;93.82;;;;;;;;;;5046592;28;20156;-71
2021/04/03 02:25:08;;;;;;;400.75;82.15;;;;;;;;;;5033402;28;20177;-71
2021/04/03 02:27:34;;;;;;;398.05;84.15;;;;;;;;;;5047721;28;20596;-72
2021/04/03 02:30:12;;;;;;;390.70;84.38;;;;;;;;;;5050517;28;20207;-71
2021/04/03 02:32:39;;;;;;;403.95;84.85;;;;;;;;;;5050321;28;20547;-71
2021/04/03 02:35:05;;;;;;;401.08;82.80;;;;;;;;;;5050642;28;20172;-71
2021/04/03 02:37:31;;;;;;;403.30;81.90;;;;;;;;;;5050527;28;20524;-72
2021/04/03 02:39:57;;;;;;;399.07;79.90;;;;;;;;;;5032528;28;20217;-71
2021/04/03 02:42:25;;;;;;;399.57;87.83;;;;;;;;;;5036857;28;20861;-71
2021/04/03 02:44:53;;;;;;;395.77;80.32;;;;;;;;;;5012812;28;20417;-71
2021/04/03 02:47:22;;;;;;;398.40;83.30;;;;;;;;;;5030645;28;20172;-73
2021/04/03 02:50:07;;;;;;;419.23;90.68;;;;;;;;;;5030386;28;20183;-70
2021/04/03 02:52:35;;;;;;;402.05;83.72;;;;;;;;;;5035450;28;20536;-71
2021/04/03 02:55:02;;;;;;;398.55;80.60;;;;;;;;;;5012604;28;20176;-72
2021/04/03 02:57:28;;;;;;;393.08;79.95;;;;;;;;;;5030456;28;20166;-71
2021/04/03 02:59:55;;;;;;;393.80;80.28;;;;;;;;;;5030212;28;20204;-71
2021/04/03 03:02:23;;;;;;;400.23;89.35;;;;;;;;;;5030274;28;20159;-71
2021/04/03 03:04:50;;;;;;;398.92;81.05;;;;;;;;;;5030382;28;20532;-71
2021/04/03 03:07:16;;;;;;;423.80;122.45;;;;;;;;;;5036013;28;20640;-73
2021/04/03 03:09:44;;;;;;;411.02;111.57;;;;;;;;;;5030867;28;20330;-71
2021/04/03 03:12:12;;;;;;;380.75;92.53;;;;;;;;;;5030411;28;20204;-71
2021/04/03 03:14:40;;;;;;;402.60;90.65;;;;;;;;;;5030420;28;20183;-71
2021/04/03 03:17:06;;;;;;;411.95;99.93;;;;;;;;;;5012568;28;20175;-71
2021/04/03 03:19:32;;;;;;;441.17;112.35;;;;;;;;;;5012661;28;20694;-71
2021/04/03 03:21:58;;;;;;;412.63;117.40;;;;;;;;;;5031716;28;20173;-72
2021/04/03 03:24:24;;;;;;;457.05;110.57;;;;;;;;;;5050125;28;20914;-70
2021/04/03 03:26:50;;;;;;;442.60;112.72;;;;;;;;;;5050121;28;20667;-71
2021/04/03 03:29:16;;;;;;;447.52;101.70;;;;;;;;;;5054256;22;20345;-69
2021/04/03 03:31:43;;;;;;;451.25;98.07;;;;;;;;;;5011315;28;20186;-70
2021/04/03 03:34:09;;;;;;;445.80;107.80;;;;;;;;;;5006593;28;20163;-70
2021/04/03 03:36:36;;;;;;;264.25;78.05;;;;;;;;;;5010019;28;20713;-71
2021/04/03 03:39:04;;;;;;;296.10;96.22;;;;;;;;;;5008572;28;20575;-70
2021/04/03 03:41:30;;;;;;;455.05;129.48;;;;;;;;;;5003793;28;20204;-70
2021/04/03 03:43:57;;;;;;;432.60;105.82;;;;;;;;;;4991643;28;20664;-71
2021/04/03 03:46:23;;;;;;;450.05;136.48;;;;;;;;;;5000898;28;20167;-72
2021/04/03 03:48:49;;;;;;;458.70;109.90;;;;;;;;;;5012923;28;20228;-70
2021/04/03 03:51:14;;;;;;;469.00;122.87;;;;;;;;;;5013373;28;20202;-70
2021/04/03 03:53:40;;;;;;;474.63;104.70;;;;;;;;;;5013326;28;20452;-71
2021/04/03 03:56:06;;;;;;;475.73;119.88;;;;;;;;;;5013372;28;20406;-71
2021/04/03 03:58:33;;;;;;;464.75;117.45;;;;;;;;;;5013188;28;20175;-72
2021/04/03 04:00:59;;;;;;;439.08;99.78;;;;;;;;;;5013008;28;20675;-70
2021/04/03 04:03:25;;;;;;;409.30;114.57;;;;;;;;;;5012666;28;20622;-72
2021/04/03 04:05:51;;;;;;;456.37;95.23;;;;;;;;;;5003058;28;20270;-71
2021/04/03 04:08:20;;;;;;;438.57;124.77;;;;;;;;;;5011118;28;20406;-71
2021/04/03 04:10:46;;;;;;;431.60;91.18;;;;;;;;;;5012922;28;20420;-71
2021/04/03 04:13:12;;;;;;;461.33;150.85;;;;;;;;;;5013028;28;20177;-70
2021/04/03 04:15:38;;;;;;;344.67;98.53;;;;;;;;;;5012953;28;20184;-71
2021/04/03 04:18:04;;;;;;;381.17;86.60;;;;;;;;;;5013332;28;20436;-69
2021/04/03 04:20:30;;;;;;;427.98;105.97;;;;;;;;;;5012663;28;20738;-70
2021/04/03 04:22:56;;;;;;;438.20;107.30;;;;;;;;;;5022629;28;20248;-72
2021/04/03 04:25:22;;;;;;;438.13;101.50;;;;;;;;;;5032669;28;20411;-71
2021/04/03 04:27:48;;;;;;;441.27;95.33;;;;;;;;;;5032882;28;20168;-71
2021/04/03 04:30:14;;;;;;;437.87;84.23;;;;;;;;;;5032413;28;20440;-72
2021/04/03 04:32:41;;;;;;;429.55;87.32;;;;;;;;;;5032194;28;20415;-71
2021/04/03 04:35:08;;;;;;;434.05;85.03;;;;;;;;;;5014570;28;20167;-70
2021/04/03 04:37:34;;;;;;;437.77;85.43;;;;;;;;;;5025315;28;20218;-69
2021/04/03 04:40:00;;;;;;;425.73;86.03;;;;;;;;;;5012252;28;20206;-71
2021/04/03 04:42:26;;;;;;;429.50;82.67;;;;;;;;;;4998414;28;20260;-71
2021/04/03 04:44:52;;;;;;;420.58;87.47;;;;;;;;;;4992810;28;20952;-72
2021/04/03 04:47:19;;;;;;;428.90;83.30;;;;;;;;;;4992745;28;20193;-71
2021/04/03 04:49:45;;;;;;;433.42;85.82;;;;;;;;;;4992049;28;20419;-71
2021/04/03 04:52:11;;;;;;;434.17;86.27;;;;;;;;;;4992483;28;20246;-73
2021/04/03 04:54:37;;;;;;;396.83;85.97;;;;;;;;;;4991634;28;20793;-72
2021/04/03 04:57:03;;;;;;;340.37;86.53;;;;;;;;;;4992678;28;20490;-71
2021/04/03 04:59:29;;;;;;;256.13;83.50;;;;;;;;;;4992560;28;20433;-70
2021/04/03 05:01:55;;;;;;;256.23;86.97;;;;;;;;;;4992495;28;20367;-72
2021/04/03 05:04:21;;;;;;;155.60;62.70;;;;;;;;;;5003250;28;20447;-72
2021/04/03 05:06:46;;;;;;;156.40;69.93;;;;;;;;;;5012179;28;20405;-72
2021/04/03 05:09:12;;;;;;;175.90;71.33;;;;;;;;;;5010552;28;20523;-70
2021/04/03 05:11:38;;;;;;;440.60;89.17;;;;;;;;;;5011397;28;20828;-72
2021/04/03 05:14:05;;;;;;;446.90;91.40;;;;;;;;;;5003663;28;20497;-73
2021/04/03 05:16:30;;;;;;;455.75;102.60;;;;;;;;;;5011866;28;20221;-72
2021/04/03 05:18:56;;;;;;;383.87;97.57;;;;;;;;;;5009535;28;20732;-72
2021/04/03 05:21:22;;;;;;;476.27;125.57;;;;;;;;;;5008510;28;20461;-72
2021/04/03 05:23:49;;;;;;;358.73;100.65;;;;;;;;;;5012556;28;20405;-71
2021/04/03 05:26:14;;;;;;;370.55;98.88;;;;;;;;;;5010745;28;20210;-73
2021/04/03 05:28:41;;;;;;;0.80;0.70;;;;;;;;;;5010912;28;20196;-72
2021/04/03 05:31:07;;;;;;;51.57;44.63;;;;;;;;;;5009388;28;20421;-71
2021/04/03 05:33:32;;;;;;;243.93;78.97;;;;;;;;;;4993478;28;20444;-72
2021/04/03 05:35:58;;;;;;;471.60;135.13;;;;;;;;;;5011132;28;21097;-71
2021/04/03 05:38:24;;;;;;;431.97;108.23;;;;;;;;;;5011547;28;20405;-71
2021/04/03 05:40:52;;;;;;;114.23;61.33;;;;;;;;;;5011285;28;20866;-70
2021/04/03 05:43:19;;;;;;;175.97;64.97;;;;;;;;;;5011075;28;20414;-71
2021/04/03 05:45:46;;;;;;;289.40;81.87;;;;;;;;;;5007696;28;20410;-71
2021/04/03 05:48:13;;;;;;;423.75;96.50;;;;;;;;;;5010776;28;20813;-72
2021/04/03 05:50:39;;;;;;;346.25;90.63;;;;;;;;;;5010441;28;20190;-71
2021/04/03 05:53:05;;;;;;;434.95;114.60;;;;;;;;;;5010574;28;20783;-70
2021/04/03 05:55:31;;;;;;;433.70;90.35;;;;;;;;;;5010729;28;20185;-70
2021/04/03 05:57:57;;;;;;;427.20;100.45;;;;;;;;;;5010879;28;20161;-71
2021/04/03 06:00:23;;;;;;;439.17;99.63;;;;;;;;;;5008211;28;20194;-70
2021/04/03 06:02:51;;;;;;;478.50;162.60;;;;;;;;;;5009521;28;20847;-70
2021/04/03 06:05:17;;;;;;;451.35;116.88;;;;;;;;;;5010641;28;20901;-71
2021/04/03 06:07:43;;;;;;;442.97;97.67;;;;;;;;;;5009166;28;20176;-72
2021/04/03 06:10:10;;;;;;;500.20;182.67;;;;;;;;;;5010545;28;20439;-72
2021/04/03 06:12:43;;;;;;;445.67;113.97;;;;;;;;;;5007103;28;20427;-71
2021/04/03 06:15:13;;;;;;;476.60;144.20;;;;;;;;;;5005111;28;20184;-72
2021/04/03 06:17:39;;;;;;;490.73;163.48;;;;;;;;;;5010045;28;20258;-71
2021/04/03 06:20:05;;;;;;;445.57;98.37;;;;;;;;;;5009434;28;20741;-72
2021/04/03 06:22:44;;;;;;;458.15;119.05;;;;;;;;;;5008421;28;20416;-73
2021/04/03 06:25:11;;;;;;;437.35;92.90;;;;;;;;;;5007149;28;20176;-71
2021/04/03 06:27:37;;;;;;;441.00;104.80;;;;;;;;;;5010625;28;20173;-72
2021/04/03 06:30:13;;;;;;;454.53;107.90;;;;;;;;;;5009911;28;20314;-71
2021/04/03 06:32:39;;;;;;;440.92;96.05;;;;;;;;;;5010741;28;20407;-73
2021/04/03 06:35:05;;;;;;;416.13;107.40;;;;;;;;;;4992920;28;20176;-71
2021/04/03 06:37:35;;;;;;;455.92;122.03;;;;;;;;;;5010635;28;20172;-71
2021/04/03 06:40:08;;;;;;;498.27;142.75;;;;;;;;;;4992881;28;20619;-71
2021/04/03 06:42:44;;;;;;;487.33;130.18;;;;;;;;;;5010199;28;20247;-72
2021/04/03 06:45:29;;;;;;;479.02;120.82;;;;;;;;;;5010573;28;20165;-71
2021/04/03 06:48:02;;;;;;;415.35;102.53;;;;;;;;;;5010616;28;20170;-72
2021/04/03 06:50:32;;;;;;;442.60;94.35;;;;;;;;;;5010656;28;20784;-70
2021/04/03 06:53:01;;;;;;;451.80;118.45;;;;;;;;;;5010491;28;20212;-73
2021/04/03 06:55:28;;;;;;;446.38;113.25;;;;;;;;;;5010550;28;20176;-73
2021/04/03 06:57:54;;;;;;;438.15;102.53;;;;;;;;;;4992855;28;20637;-72
2021/04/03 07:00:20;;;;;;;222.15;86.53;;;;;;;;;;5010584;28;20197;-71
2021/04/03 07:03:03;;;;;;;276.17;96.83;;;;;;;;;;5010377;28;20170;-71
2021/04/03 07:05:34;;;;;;;428.70;102.20;;;;;;;;;;4992594;28;20415;-72
2021/04/03 07:08:05;;;;;;;422.92;102.15;;;;;;;;;;5010488;28;20166;-71
2021/04/03 07:10:31;;;;;;;402.23;119.18;;;;;;;;;;5010117;28;20189;-71
2021/04/03 07:12:57;;;;;;;433.75;106.00;;;;;;;;;;5010551;28;20234;-71
2021/04/03 07:15:24;;;;;;;431.60;98.80;;;;;;;;;;5010355;28;20257;-71
2021/04/03 07:17:50;;;;;;;445.60;101.38;;;;;;;;;;5009244;28;20197;-73
2021/04/03 07:20:20;;;;;;;444.38;101.80;;;;;;;;;;5012964;28;20256;-72
2021/04/03 07:22:48;;;;;;;456.33;107.18;;;;;;;;;;5013705;28;20240;-70
2021/04/03 07:25:14;;;;;;;453.98;117.82;;;;;;;;;;5014139;28;20249;-71
2021/04/03 07:27:41;;;;;;;463.17;132.97;;;;;;;;;;5012454;28;20259;-72
2021/04/03 07:30:08;;;;;;;477.85;136.40;;;;;;;;;;4998745;28;20461;-72
2021/04/03 07:32:42;;;;;;;450.52;113.40;;;;;;;;;;4996218;28;20289;-71
2021/04/03 07:35:14;;;;;;;448.88;103.32;;;;;;;;;;5013774;28;20177;-72
2021/04/03 07:37:41;;;;;;;436.50;106.20;;;;;;;;;;5010966;28;20181;-72
2021/04/03 07:40:07;;;;;;;433.15;114.72;;;;;;;;;;5012354;28;20981;-73
2021/04/03 07:42:38;;;;;;;481.03;118.97;;;;;;;;;;5012066;28;20176;-71
2021/04/03 07:45:06;;;;;;;478.23;117.47;;;;;;;;;;4992928;28;20922;-70
2021/04/03 07:47:45;;;;;;;468.13;115.37;;;;;;;;;;4994838;28;20454;-74
2021/04/03 07:50:11;;;;;;;276.67;116.20;;;;;;;;;;5013639;28;20424;-73
2021/04/03 07:53:03;;;;;;;207.90;98.57;;;;;;;;;;4995546;28;20441;-72
2021/04/03 07:55:33;;;;;;;419.53;127.80;;;;;;;;;;5008170;28;20463;-73
2021/04/03 07:58:23;;;;;;;461.17;121.27;;;;;;;;;;5012276;28;20838;-73
2021/04/03 08:00:50;;;;;;;459.77;127.10;;;;;;;;;;5009401;28;20546;-72
2021/04/03 08:03:26;;;;;;;483.63;126.85;;;;;;;;;;4994002;28;20419;-71
2021/04/03 08:06:18;;;;;;;431.00;129.07;;;;;;;;;;5009249;28;20167;-71
2021/04/03 08:08:44;;;;;;;452.73;135.23;;;;;;;;;;5004679;28;20946;-70
2021/04/03 08:11:18;;;;;;;462.43;131.13;;;;;;;;;;4995683;28;20408;-70
2021/04/03 08:13:53;;;;;;;484.43;130.13;;;;;;;;;;5013272;28;20408;-71
2021/04/03 08:16:20;;;;;;;485.33;152.13;;;;;;;;;;5012024;28;20392;-71
2021/04/03 08:18:47;;;;;;;494.67;136.37;;;;;;;;;;5012385;28;20539;-71
2021/04/03 08:21:13;;;;;;;495.77;140.77;;;;;;;;;;5012497;28;20468;-70
2021/04/03 08:23:40;;;;;;;264.47;135.77;;;;;;;;;;5012891;28;20439;-71
2021/04/03 08:26:07;;;;;;;491.70;145.43;;;;;;;;;;4995337;28;20448;-71
2021/04/03 08:28:33;;;;;;;504.20;155.97;;;;;;;;;;5011469;28;20409;-71
2021/04/03 08:31:11;;;;;;;504.23;164.60;;;;;;;;;;5011325;28;20459;-71
2021/04/03 08:33:37;;;;;;;364.70;159.80;;;;;;;;;;5010442;28;21011;-70
2021/04/03 08:36:09;;;;;;;352.50;193.90;;;;;;;;;;5012007;28;20409;-71
2021/04/03 08:38:36;;;;;;;489.90;223.47;;;;;;;;;;5012216;28;20486;-67
2021/04/03 08:41:02;;;;;;;15.07;14.47;;;;;;;;;;5014259;28;20467;-67
2021/04/03 08:43:28;;;;;;;536.40;386.63;;;;;;;;;;5013444;28;20880;-67
2021/04/03 08:45:54;;;;;;;;;;;;;;;;;;5012909;28;20496;-67
2021/04/03 08:48:20;;;;;;;;;;;;;;;;;;5013634;28;20353;-67
2021/04/03 08:50:46;;;;;;;;;;;;;;;;;;5013748;28;19956;-68
2021/04/03 08:53:12;;;;;;;;;;;;;;;;;;5012633;28;19996;-67
2021/04/03 08:55:38;;;;;;;;;;;;;;;;;;5013595;28;19952;-69
2021/04/03 08:58:04;;;;;;;;;;;;;;;;;;5012768;28;19949;-67
2021/04/03 09:00:29;;;;;;;;;;;;;;;;;;5012977;28;20444;-66
2021/04/03 09:02:55;;;;;;;;;;;;;;;;;;5009482;28;20385;-65
2021/04/03 09:05:21;;;;;;;;;;;;;;;;;;5011498;28;19914;-67
2021/04/03 09:07:47;;;;;;;;;;;;;;;;;;5011724;28;19947;-65
2021/04/03 09:10:17;;;;;;;;;;;;;;;;;;5008931;28;19921;-67
2021/04/03 09:12:43;;;;;;;;;;;;;;;;;;5008079;28;20270;-67
2021/04/03 09:15:09;;;;;;;;;;;;;;;;;;5009478;28;19916;-68
2021/04/03 09:17:35;;;;;;;;;;;;;;;;;;5003486;28;19967;-66
2021/04/03 09:20:01;;;;;;;;;;;;;;;;;;5010196;28;19975;-67
2021/04/03 09:22:26;;;;;;;;;;;;;;;;;;5012000;28;19922;-66
2021/04/03 09:24:52;;;;;;;;;;;;;;;;;;5011313;28;19913;-66
2021/04/03 09:27:18;;;;;;;;;;;;;;;;;;5010254;28;19983;-66
2021/04/03 09:29:51;;;;;;;;;;;;;;;;;;5011132;28;20393;-68
2021/04/03 09:32:17;;;;;;;;;;;;;;;;;;5078649;23;19932;-67
2021/04/03 09:34:43;;;;;;;;;;;;;;;;;;5069866;28;19912;-67
2021/04/03 09:37:09;;;;;;;;;;;;;;;;;;5069196;28;20330;-68
2021/04/03 09:39:41;;;;;;;22.63;12.73;;;;;;;;;;5068964;28;20342;-68
2021/04/03 09:42:11;;;;;;;1.00;0.90;;;;;;;;;;5066772;28;20200;-68
2021/04/03 09:44:37;;;;;;;0.80;0.50;;;;;;;;;;5062875;28;21081;-68
2021/04/03 09:47:03;;;;;;;51.37;34.63;;;;;;;;;;5065076;28;20390;-67
2021/04/03 09:49:29;;;;;;;0.80;0.70;;;;;;;;;;5071415;28;20485;-68
2021/04/03 09:51:57;;;;;;;1.07;0.93;;;;;;;;;;5071130;28;21159;-68
2021/04/03 09:54:23;;;;;;;1.67;0.60;;;;;;;;;;5047805;28;20970;-68
2021/04/03 09:56:49;;;;;;;1.10;0.67;;;;;;;;;;5071341;28;20398;-68
2021/04/03 09:59:15;;;;;;;0.70;0.40;;;;;;;;;;5072565;28;20477;-70
2021/04/03 10:01:41;;;;;;;1.80;1.13;;;;;;;;;;5070949;28;20445;-70
2021/04/03 10:04:07;;;;;;;0.90;0.67;;;;;;;;;;5071045;28;20720;-70
2021/04/03 10:06:33;;;;;;;1.00;0.50;;;;;;;;;;5063089;28;20866;-71
2021/04/03 10:08:59;;;;;;;0.80;0.50;;;;;;;;;;5070930;28;20828;-69
2021/04/03 10:11:25;;;;;;;0.70;0.50;;;;;;;;;;5070824;28;20400;-70
2021/04/03 10:13:51;;;;;;;10.80;7.13;;;;;;;;;;5070880;28;20489;-69
2021/04/03 10:16:17;;;;;;;1.17;0.60;;;;;;;;;;5069591;28;20410;-69
2021/04/03 10:18:43;;;;;;;66.27;57.53;;;;;;;;;;5070932;28;20400;-73
2021/04/03 10:21:10;;;;;;;33.37;16.90;;;;;;;;;;5066747;28;20454;-70
2021/04/03 10:23:36;;;;;;;0.70;0.50;;;;;;;;;;5044263;28;20385;-73
2021/04/03 10:26:02;;;;;;;34.17;20.90;;;;;;;;;;5066176;28;20436;-77
2021/04/03 10:28:28;;;;;;;2.10;0.70;;;;;;;;;;5065522;28;20411;-71
2021/04/03 10:30:55;;;;;;;18.37;10.37;;;;;;;;;;5054167;28;20484;-71
2021/04/03 10:33:21;;;;;;;0.87;0.70;;;;;;;;;;5058555;28;20929;-70
2021/04/03 10:35:46;;;;;;;1.83;1.73;;;;;;;;;;5070506;28;20447;-68
2021/04/03 10:38:12;;;;;;;0.80;0.50;;;;;;;;;;5070787;28;20405;-70
2021/04/03 10:40:38;;;;;;;0.87;0.60;;;;;;;;;;5060230;28;20546;-70
2021/04/03 10:43:04;;;;;;;0.87;0.73;;;;;;;;;;5068099;28;20939;-69
2021/04/03 10:45:33;;;;;;;1.53;0.60;;;;;;;;;;5062290;28;20909;-70
2021/04/03 10:48:01;;;;;;;0.70;0.50;;;;;;;;;;5070197;28;20398;-69
2021/04/03 10:50:27;;;;;;;1.87;1.13;;;;;;;;;;5066625;28;20450;-70
2021/04/03 10:52:53;;;;;;;1.03;0.93;;;;;;;;;;5071351;28;20497;-70
2021/04/03 10:55:19;;;;;;;1.00;0.60;;;;;;;;;;5073584;28;20864;-70
2021/04/03 10:57:47;;;;;;;0.80;0.50;;;;;;;;;;5055238;28;20384;-70
2021/04/03 11:00:14;;;;;;;1.07;0.70;;;;;;;;;;5073521;28;20531;-70
2021/04/03 11:02:43;;;;;;;2.63;0.97;;;;;;;;;;5073326;28;20394;-69
2021/04/03 11:05:09;;;;;;;0.70;0.40;;;;;;;;;;5073571;28;20772;-70
2021/04/03 11:07:35;;;;;;;1.30;0.60;;;;;;;;;;5055784;28;20410;-70
2021/04/03 11:10:01;;;;;;;1.30;0.53;;;;;;;;;;5073411;28;20413;-70
2021/04/03 11:12:30;;;;;;;0.70;0.50;;;;;;;;;;5070831;28;20402;-70
2021/04/03 11:14:55;;;;;;;1.17;1.07;;;;;;;;;;5073478;28;20734;-70
2021/04/03 11:17:21;;;;;;;1.10;0.53;;;;;;;;;;5073294;28;20416;-68
2021/04/03 11:19:47;;;;;;;0.90;0.70;;;;;;;;;;5055631;28;20500;-70
2021/04/03 11:22:13;;;;;;;0.80;0.57;;;;;;;;;;5073039;28;20444;-69
2021/04/03 11:24:39;;;;;;;0.80;0.60;;;;;;;;;;5073205;28;21043;-70
2021/04/03 11:27:05;;;;;;;0.80;0.60;;;;;;;;;;5068276;28;20389;-70
2021/04/03 11:29:31;;;;;;;1.63;0.70;;;;;;;;;;5069940;28;20396;-69
2021/04/03 11:31:57;;;;;;;41.93;37.63;;;;;;;;;;5070359;28;20457;-69
2021/04/03 11:34:25;;;;;;;60.80;53.03;;;;;;;;;;5068986;28;20422;-67
2021/04/03 11:36:50;;;;;;;52.83;42.63;;;;;;;;;;5073850;28;20379;-69
2021/04/03 11:39:16;;;;;;;0.70;0.50;;;;;;;;;;5073209;28;20410;-70
2021/04/03 11:41:42;;;;;;;0.80;0.50;;;;;;;;;;5065062;28;20516;-70
2021/04/03 11:44:08;;;;;;;1.17;1.07;;;;;;;;;;5071312;28;20392;-69
2021/04/03 11:46:34;;;;;;;0.90;0.80;;;;;;;;;;5070745;28;20454;-70
2021/04/03 11:49:03;;;;;;;0.70;0.50;;;;;;;;;;5067638;28;20392;-69
2021/04/03 11:51:29;;;;;;;0.80;0.50;;;;;;;;;;5065383;28;20416;-70
2021/04/03 11:53:55;;;;;;;0.70;0.50;;;;;;;;;;5069126;28;20403;-71
2021/04/03 11:56:21;;;;;;;1.53;1.00;;;;;;;;;;5072034;28;20434;-70
2021/04/03 11:58:47;;;;;;;0.90;0.50;;;;;;;;;;5072669;28;20439;-69
2021/04/03 12:01:13;;;;;;;1.20;0.60;;;;;;;;;;5072360;28;20772;-69
2021/04/03 12:03:39;;;;;;;3.90;0.80;;;;;;;;;;5072330;28;20381;-69
2021/04/03 12:06:05;;;;;;;0.93;0.77;;;;;;;;;;5072618;28;20460;-68
2021/04/03 12:08:31;;;;;;;0.83;0.80;;;;;;;;;;5072563;28;20402;-69
2021/04/03 12:10:57;;;;;;;1.77;1.10;;;;;;;;;;5054417;28;20414;-69
2021/04/03 12:13:26;;;;;;;0.70;0.50;;;;;;;;;;5054173;28;20458;-69
2021/04/03 12:15:51;;;;;;;3.43;1.57;;;;;;;;;;5069729;28;20540;-71
2021/04/03 12:18:17;;;;;;;1.70;1.60;;;;;;;;;;5068655;28;20472;-70
2021/04/03 12:20:43;;;;;;;0.70;0.50;;;;;;;;;;5065678;28;20436;-70
2021/04/03 12:23:09;;;;;;;0.83;0.80;;;;;;;;;;5055300;28;20418;-69
2021/04/03 12:25:35;;;;;;;0.70;0.50;;;;;;;;;;5072349;28;20422;-69
2021/04/03 12:28:01;;;;;;;0.90;0.60;;;;;;;;;;5047949;28;20392;-72
2021/04/03 12:30:27;;;;;;;0.70;0.60;;;;;;;;;;5029530;28;20416;-67
2021/04/03 12:32:53;;;;;;;1.83;0.63;;;;;;;;;;5052959;28;20863;-68
2021/04/03 12:35:19;;;;;;;0.77;0.50;;;;;;;;;;5071684;28;20419;-69
2021/04/03 12:37:45;;;;;;;64.37;42.30;;;;;;;;;;5066627;28;20406;-69
2021/04/03 12:40:12;;;;;;;0.90;0.77;;;;;;;;;;5053885;28;20940;-69
2021/04/03 12:42:38;;;;;;;1.80;1.10;;;;;;;;;;5069919;28;20762;-68
2021/04/03 12:45:05;;;;;;;1.00;0.90;;;;;;;;;;5071609;28;20407;-69
2021/04/03 12:47:31;;;;;;;1.00;0.70;;;;;;;;;;5072235;28;20404;-68
2021/04/03 12:49:56;;;;;;;0.70;0.60;;;;;;;;;;5072096;28;20462;-68
2021/04/03 12:52:22;;;;;;;2.73;1.07;;;;;;;;;;5069463;28;20400;-69
2021/04/03 12:54:48;;;;;;;0.80;0.67;;;;;;;;;;5072418;28;20402;-69
2021/04/03 12:57:14;;;;;;;0.80;0.53;;;;;;;;;;5071954;28;20414;-69
2021/04/03 12:59:40;;;;;;;0.90;0.60;;;;;;;;;;5071609;28;20516;-69
2021/04/03 13:02:06;;;;;;;0.83;0.57;;;;;;;;;;5071465;28;20418;-68
2021/04/03 13:04:32;;;;;;;0.93;0.70;;;;;;;;;;5053486;28;20439;-68
2021/04/03 13:06:58;;;;;;;1.00;0.80;;;;;;;;;;5071405;28;20452;-69
2021/04/03 13:09:24;;;;;;;57.77;36.30;;;;;;;;;;5072760;28;20414;-70
2021/04/03 13:11:50;;;;;;;2.97;2.50;;;;;;;;;;5058762;28;20448;-67
2021/04/03 13:14:17;;;;;;;750.60;672.73;;;;;;;;;;5075414;28;20376;-68
2021/04/03 13:16:43;;;;;;;794.27;712.40;;;;;;;;;;5073482;28;20455;-67
2021/04/03 13:19:08;;;;;;;0.90;0.60;;;;;;;;;;5073279;28;20894;-67
2021/04/03 13:21:34;;;;;;;19.77;16.33;;;;;;;;;;5054722;28;20465;-67
2021/04/03 13:24:00;;;;;;;0.80;0.60;;;;;;;;;;5053992;28;20476;-66
2021/04/03 13:26:26;;;;;;;2.30;1.10;;;;;;;;;;5053837;28;20476;-67
2021/04/03 13:28:52;;;;;;;3.83;1.33;;;;;;;;;;5070930;28;20825;-68
2021/04/03 13:31:18;;;;;;;11.73;7.67;;;;;;;;;;5069636;28;20448;-68
2021/04/03 13:33:44;;;;;;;23.63;12.20;;;;;;;;;;5068104;28;20510;-68
2021/04/03 13:36:10;;;;;;;0.87;0.80;;;;;;;;;;5071023;28;20513;-69
2021/04/03 13:38:42;;;;;;;0.80;0.60;;;;;;;;;;5123155;27;20508;-68
2021/04/03 13:41:08;;;;;;;1.83;1.00;;;;;;;;;;5119906;28;20414;-68
2021/04/03 13:43:34;;;;;;;1.17;1.03;;;;;;;;;;5124179;27;20386;-68
2021/04/03 13:46:00;;;;;;;6.10;0.87;;;;;;;;;;5114442;28;20465;-67
2021/04/03 13:48:26;;;;;;;1.23;0.80;;;;;;;;;;5091819;28;20892;-68
2021/04/03 13:50:52;;;;;;;193.80;162.77;;;;;;;;;;5097254;28;20479;-67
2021/04/03 13:53:18;;;;;;;0.77;0.60;;;;;;;;;;5104645;28;20398;-69
2021/04/03 13:55:46;;;;;;;1.10;0.70;;;;;;;;;;5101564;28;20407;-68
2021/04/03 13:58:16;;;;;;;0.80;0.70;;;;;;;;;;5124107;27;20446;-68
2021/04/03 14:00:42;;;;;;;0.80;0.60;;;;;;;;;;5127818;27;20878;-68
2021/04/03 14:03:08;;;;;;;105.90;94.80;;;;;;;;;;5117114;28;20446;-68
2021/04/03 14:05:34;;;;;;;4.83;1.63;;;;;;;;;;5116641;27;20400;-68
2021/04/03 14:07:59;;;;;;;2.13;1.10;;;;;;;;;;5123858;28;20403;-68
2021/04/03 14:10:26;;;;;;;1.20;0.73;;;;;;;;;;5116064;28;20410;-68
2021/04/03 14:12:51;;;;;;;0.87;0.70;;;;;;;;;;5124138;27;20378;-68
2021/04/03 14:15:17;;;;;;;2.70;1.37;;;;;;;;;;5119133;27;20419;-68
2021/04/03 14:17:43;;;;;;;1.07;0.97;;;;;;;;;;5109184;28;21040;-70
2021/04/03 14:20:10;;;;;;;4.73;2.20;;;;;;;;;;5126368;27;20399;-69
2021/04/03 14:22:36;;;;;;;150.67;115.97;;;;;;;;;;5112853;28;20457;-70
2021/04/03 14:25:02;;;;;;;0.83;0.70;;;;;;;;;;5116195;27;20407;-69